createdAt,value
2018-05-27T00:01:10.684Z,23.35
2018-05-27T00:03:12.683Z,23.38
2018-05-27T00:05:14.545Z,23.26
2018-05-27T00:07:16.524Z,23.31
2018-05-27T00:09:18.398Z,23.31
2018-05-27T00:11:20.683Z,23.32
2018-05-27T00:13:22.634Z,23.26
2018-05-27T00:15:24.822Z,23.22
2018-05-27T00:17:26.759Z,23.19
2018-05-27T00:19:28.986Z,23.23
2018-05-27T00:21:30.983Z,23.09
2018-05-27T00:23:32.901Z,23.12
2018-05-27T00:26:21.924Z,23.12
2018-05-27T00:28:23.495Z,23.15
2018-05-27T00:30:25.291Z,23.08
2018-05-27T00:32:27.253Z,23.01
2018-05-27T00:34:30.158Z,23.05
2018-05-27T00:36:31.959Z,23.04
2018-05-27T00:38:33.867Z,22.93
2018-05-27T00:40:35.791Z,22.84
2018-05-27T00:42:37.749Z,22.87
2018-05-27T00:44:39.649Z,22.90
2018-05-27T00:46:41.857Z,22.75
2018-05-27T00:48:43.489Z,22.80
2018-05-27T00:50:45.720Z,22.65
2018-05-27T00:52:47.925Z,22.56
2018-05-27T00:54:49.923Z,22.56
2018-05-27T00:56:52.330Z,22.56
2018-05-27T00:58:54.571Z,22.53
2018-05-27T01:00:56.426Z,22.47
2018-05-27T01:02:58.409Z,22.41
2018-05-27T01:05:00.450Z,22.43
2018-05-27T01:07:02.402Z,22.44
2018-05-27T01:09:04.135Z,22.38
2018-05-27T01:11:06.719Z,22.29
2018-05-27T01:13:08.561Z,22.38
2018-05-27T01:15:10.417Z,22.23
2018-05-27T01:17:12.341Z,22.28
2018-05-27T01:19:14.323Z,22.23
2018-05-27T01:21:16.253Z,22.13
2018-05-27T01:23:18.273Z,22.17
2018-05-27T01:25:20.247Z,22.06
2018-05-27T01:27:22.270Z,22.09
2018-05-27T01:29:24.232Z,22.10
2018-05-27T01:31:26.251Z,22.12
2018-05-27T01:33:28.351Z,22.10
2018-05-27T01:35:30.213Z,21.99
2018-05-27T01:37:32.448Z,21.99
2018-05-27T01:39:34.418Z,21.98
2018-05-27T01:41:36.335Z,21.95
2018-05-27T01:43:38.235Z,21.90
2018-05-27T01:45:40.132Z,21.94
2018-05-27T01:47:42.039Z,21.83
2018-05-27T01:49:44.161Z,21.81
2018-05-27T01:51:46.219Z,21.79
2018-05-27T01:54:30.085Z,21.85
2018-05-27T01:56:32.436Z,21.76
2018-05-27T01:58:34.845Z,21.72
2018-05-27T02:00:37.183Z,21.78
2018-05-27T02:02:39.126Z,21.69
2018-05-27T02:04:41.124Z,21.67
2018-05-27T02:06:43.038Z,21.53
2018-05-27T02:08:45.275Z,21.57
2018-05-27T02:10:47.236Z,21.60
2018-05-27T02:12:49.111Z,21.51
2018-05-27T02:14:50.855Z,21.44
2018-05-27T02:16:53.206Z,21.44
2018-05-27T02:18:55.005Z,21.51
2018-05-27T02:20:56.784Z,21.50
2018-05-27T02:22:58.718Z,21.42
2018-05-27T02:25:00.620Z,21.26
2018-05-27T02:27:02.548Z,21.39
2018-05-27T02:29:04.428Z,21.23
2018-05-27T02:31:06.274Z,21.29
2018-05-27T02:33:08.175Z,21.20
2018-05-27T02:35:10.207Z,21.17
2018-05-27T02:37:12.207Z,21.21
2018-05-27T02:39:14.132Z,21.16
2018-05-27T02:41:16.006Z,21.17
2018-05-27T02:43:18.020Z,21.08
2018-05-27T02:45:20.000Z,21.20
2018-05-27T02:47:21.870Z,21.14
2018-05-27T02:49:24.722Z,21.04
2018-05-27T02:51:26.572Z,20.96
2018-05-27T02:53:28.423Z,20.95
2018-05-27T02:56:13.187Z,20.99
2018-05-27T02:58:15.438Z,20.95
2018-05-27T03:00:17.102Z,20.87
2018-05-27T03:02:18.980Z,20.90
2018-05-27T03:04:20.777Z,20.83
2018-05-27T03:06:22.703Z,20.79
2018-05-27T03:08:24.577Z,20.76
2018-05-27T03:10:26.267Z,20.72
2018-05-27T03:12:28.148Z,20.76
2018-05-27T03:14:29.969Z,20.77
2018-05-27T03:16:32.354Z,20.77
2018-05-27T03:18:34.117Z,20.69
2018-05-27T03:20:35.857Z,20.61
2018-05-27T03:22:38.229Z,20.59
2018-05-27T03:24:40.431Z,20.58
2018-05-27T03:26:42.353Z,20.62
2018-05-27T03:28:44.757Z,20.64
2018-05-27T03:30:46.671Z,20.65
2018-05-27T03:32:48.929Z,20.64
2018-05-27T03:34:50.911Z,20.56
2018-05-27T03:36:53.215Z,20.62
2018-05-27T03:38:55.525Z,20.58
2018-05-27T03:40:57.399Z,20.64
2018-05-27T03:42:59.353Z,20.61
2018-05-27T03:45:01.252Z,20.56
2018-05-27T03:47:03.231Z,20.62
2018-05-27T03:49:05.586Z,20.69
2018-05-27T03:51:07.493Z,20.61
2018-05-27T03:53:09.486Z,20.66
2018-05-27T03:55:11.333Z,20.61
2018-05-27T03:57:13.251Z,20.65
2018-05-27T03:59:15.209Z,20.62
2018-05-27T04:01:17.122Z,20.64
2018-05-27T04:03:19.349Z,20.66
2018-05-27T04:05:21.280Z,20.64
2018-05-27T04:07:23.299Z,20.69
2018-05-27T04:09:25.342Z,20.65
2018-05-27T04:11:27.152Z,20.58
2018-05-27T04:13:29.153Z,20.64
2018-05-27T04:15:31.120Z,20.59
2018-05-27T04:18:16.133Z,20.64
2018-05-27T04:20:18.484Z,20.53
2018-05-27T04:22:20.679Z,20.64
2018-05-27T04:24:22.514Z,20.65
2018-05-27T04:26:25.292Z,20.65
2018-05-27T04:28:27.356Z,20.65
2018-05-27T04:30:29.222Z,20.66
2018-05-27T04:32:31.280Z,20.54
2018-05-27T04:34:33.391Z,20.64
2018-05-27T04:36:35.661Z,20.58
2018-05-27T04:39:22.091Z,20.68
2018-05-27T04:41:24.401Z,20.69
2018-05-27T04:43:26.811Z,20.71
2018-05-27T04:45:28.713Z,20.66
2018-05-27T04:47:31.015Z,20.74
2018-05-27T04:49:32.962Z,20.81
2018-05-27T04:51:35.218Z,20.76
2018-05-27T04:53:37.331Z,20.80
2018-05-27T04:55:39.443Z,20.83
2018-05-27T04:57:41.625Z,20.87
2018-05-27T04:59:43.427Z,20.86
2018-05-27T05:01:45.376Z,20.83
2018-05-27T05:03:47.294Z,20.87
2018-05-27T05:05:49.208Z,20.83
2018-05-27T05:07:51.514Z,20.83
2018-05-27T05:09:53.437Z,20.86
2018-05-27T05:11:55.516Z,20.86
2018-05-27T05:13:57.476Z,20.89
2018-05-27T05:15:59.483Z,20.87
2018-05-27T05:18:01.363Z,21.02
2018-05-27T05:20:03.414Z,20.99
2018-05-27T05:22:05.671Z,20.99
2018-05-27T05:24:07.293Z,20.95
2018-05-27T05:26:09.149Z,21.01
2018-05-27T05:28:10.965Z,21.17
2018-05-27T05:30:13.184Z,21.23
2018-05-27T05:32:14.856Z,21.20
2018-05-27T05:34:16.727Z,21.36
2018-05-27T05:36:18.632Z,21.56
2018-05-27T05:38:20.385Z,21.75
2018-05-27T05:40:22.400Z,22.06
2018-05-27T05:42:24.092Z,22.34
2018-05-27T05:44:26.076Z,22.84
2018-05-27T05:46:28.301Z,23.34
2018-05-27T05:48:30.141Z,23.47
2018-05-27T05:51:14.117Z,24.01
2018-05-27T05:53:16.267Z,24.90
2018-05-27T05:55:17.869Z,25.34
2018-05-27T05:57:19.540Z,25.59
2018-05-27T05:59:21.152Z,25.72
2018-05-27T06:01:23.064Z,25.93
2018-05-27T06:03:25.267Z,26.12
2018-05-27T06:05:27.088Z,26.69
2018-05-27T06:07:28.908Z,27.23
2018-05-27T06:09:30.914Z,28.07
2018-05-27T06:11:32.809Z,29.19
2018-05-27T06:13:34.729Z,30.15
2018-05-27T06:15:36.422Z,30.45
2018-05-27T06:17:38.273Z,30.80
2018-05-27T06:19:40.104Z,30.91
2018-05-27T06:21:41.942Z,30.68
2018-05-27T06:23:43.859Z,30.54
2018-05-27T06:25:46.018Z,30.14
2018-05-27T06:27:47.715Z,30.08
2018-05-27T06:29:49.733Z,30.64
2018-05-27T06:31:51.619Z,30.75
2018-05-27T06:33:53.695Z,31.01
2018-05-27T06:35:55.788Z,31.09
2018-05-27T06:37:57.628Z,31.12
2018-05-27T06:39:59.535Z,31.91
2018-05-27T06:42:01.462Z,32.43
2018-05-27T06:44:03.255Z,33.15
2018-05-27T06:46:05.156Z,33.76
2018-05-27T06:48:06.978Z,33.89
2018-05-27T06:50:08.991Z,34.23
2018-05-27T06:52:10.892Z,34.70
2018-05-27T06:54:13.042Z,35.15
2018-05-27T06:56:15.100Z,35.42
2018-05-27T06:58:16.986Z,35.86
2018-05-27T07:00:18.840Z,36.31
2018-05-27T07:02:20.880Z,36.58
2018-05-27T07:04:22.853Z,36.61
2018-05-27T07:06:24.757Z,36.72
2018-05-27T07:08:26.601Z,37.02
2018-05-27T07:10:28.589Z,36.83
2018-05-27T07:12:30.534Z,36.98
2018-05-27T07:14:32.317Z,36.75
2018-05-27T07:16:34.372Z,36.14
2018-05-27T07:18:36.507Z,35.76
2018-05-27T07:20:38.467Z,35.10
2018-05-27T07:22:40.452Z,34.24
2018-05-27T07:24:42.504Z,33.73
2018-05-27T07:26:44.615Z,33.03
2018-05-27T07:28:46.771Z,32.30
2018-05-27T07:30:48.813Z,31.48
2018-05-27T07:32:50.652Z,30.83
2018-05-27T07:34:52.792Z,30.19
2018-05-27T07:36:55.282Z,29.37
2018-05-27T07:39:42.431Z,28.81
2018-05-27T07:41:44.227Z,28.46
2018-05-27T07:43:46.111Z,28.10
2018-05-27T07:45:48.110Z,27.77
2018-05-27T07:47:49.997Z,27.50
2018-05-27T07:49:52.090Z,27.20
2018-05-27T07:51:54.123Z,27.02
2018-05-27T07:53:56.165Z,26.87
2018-05-27T07:55:58.282Z,26.79
2018-05-27T07:58:00.254Z,26.68
2018-05-27T08:00:02.232Z,26.62
2018-05-27T08:02:04.333Z,26.57
2018-05-27T08:04:06.338Z,26.54
2018-05-27T08:06:08.287Z,26.59
2018-05-27T08:08:10.295Z,26.54
2018-05-27T08:10:12.253Z,26.59
2018-05-27T08:12:14.109Z,26.61
2018-05-27T08:14:15.975Z,26.64
2018-05-27T08:16:17.911Z,26.67
2018-05-27T08:18:20.014Z,26.79
2018-05-27T08:20:22.054Z,26.79
2018-05-27T08:22:23.993Z,26.89
2018-05-27T08:24:26.118Z,26.94
2018-05-27T08:26:27.923Z,26.92
2018-05-27T08:28:29.935Z,26.94
2018-05-27T08:30:31.690Z,27.17
2018-05-27T08:32:33.667Z,27.35
2018-05-27T08:34:35.579Z,27.42
2018-05-27T08:36:37.684Z,27.51
2018-05-27T08:38:39.638Z,27.67
2018-05-27T08:40:41.777Z,27.85
2018-05-27T08:42:43.709Z,27.94
2018-05-27T08:44:45.733Z,27.95
2018-05-27T08:46:47.414Z,28.14
2018-05-27T08:48:48.996Z,28.32
2018-05-27T08:50:50.705Z,28.43
2018-05-27T08:52:52.801Z,28.41
2018-05-27T08:54:54.791Z,28.22
2018-05-27T08:56:56.777Z,28.25
2018-05-27T08:58:58.762Z,28.36
2018-05-27T09:01:00.651Z,28.56
2018-05-27T09:03:02.591Z,28.58
2018-05-27T09:05:04.515Z,28.62
2018-05-27T09:07:06.378Z,28.87
2018-05-27T09:09:08.232Z,29.10
2018-05-27T09:11:09.926Z,29.19
2018-05-27T09:13:12.032Z,29.28
2018-05-27T09:15:13.878Z,29.28
2018-05-27T09:17:16.018Z,29.34
2018-05-27T09:19:18.170Z,29.34
2018-05-27T09:21:20.280Z,29.53
2018-05-27T09:23:22.093Z,29.66
2018-05-27T09:25:24.062Z,29.78
2018-05-27T09:27:26.053Z,29.79
2018-05-27T09:29:28.009Z,29.57
2018-05-27T09:31:29.854Z,29.70
2018-05-27T09:33:31.779Z,29.84
2018-05-27T09:35:33.578Z,30.02
2018-05-27T09:37:35.505Z,30.09
2018-05-27T09:39:37.292Z,30.07
2018-05-27T09:41:39.210Z,30.26
2018-05-27T09:43:41.028Z,30.34
2018-05-27T09:45:42.891Z,30.40
2018-05-27T09:47:44.621Z,30.43
2018-05-27T09:49:46.543Z,30.37
2018-05-27T09:51:48.523Z,30.52
2018-05-27T09:53:50.407Z,30.72
2018-05-27T09:55:52.212Z,30.75
2018-05-27T09:57:54.068Z,30.89
2018-05-27T09:59:56.149Z,31.08
2018-05-27T10:01:58.133Z,31.08
2018-05-27T10:04:00.018Z,31.27
2018-05-27T10:06:02.263Z,31.23
2018-05-27T10:08:04.387Z,31.24
2018-05-27T10:10:06.319Z,31.17
2018-05-27T10:12:08.318Z,31.24
2018-05-27T10:14:10.245Z,31.33
2018-05-27T10:16:12.120Z,31.36
2018-05-27T10:18:14.269Z,31.17
2018-05-27T10:20:16.200Z,31.06
2018-05-27T10:22:18.136Z,31.21
2018-05-27T10:24:19.988Z,31.38
2018-05-27T10:26:21.797Z,31.49
2018-05-27T10:28:23.777Z,31.57
2018-05-27T10:30:25.819Z,31.36
2018-05-27T10:32:27.664Z,31.28
2018-05-27T10:34:29.545Z,31.43
2018-05-27T10:36:31.489Z,31.45
2018-05-27T10:39:13.987Z,31.42
2018-05-27T10:41:15.401Z,31.33
2018-05-27T10:43:16.854Z,31.49
2018-05-27T10:45:18.301Z,31.49
2018-05-27T10:47:19.750Z,31.09
2018-05-27T10:49:21.194Z,31.18
2018-05-27T10:51:22.661Z,31.27
2018-05-27T10:53:24.109Z,31.49
2018-05-27T10:55:25.584Z,31.53
2018-05-27T10:57:27.026Z,31.61
2018-05-27T10:59:28.474Z,31.62
2018-05-27T11:01:29.919Z,31.53
2018-05-27T11:03:31.366Z,31.67
2018-05-27T11:05:32.810Z,31.62
2018-05-27T11:07:34.258Z,31.58
2018-05-27T11:09:35.708Z,31.65
2018-05-27T11:11:37.155Z,31.58
2018-05-27T11:13:38.604Z,31.67
2018-05-27T11:15:40.053Z,31.72
2018-05-27T11:17:41.501Z,31.76
2018-05-27T11:19:42.948Z,31.84
2018-05-27T11:21:44.393Z,31.91
2018-05-27T11:23:45.841Z,31.87
2018-05-27T11:25:47.290Z,31.84
2018-05-27T11:27:48.738Z,31.88
2018-05-27T11:29:50.205Z,31.85
2018-05-27T11:31:51.635Z,31.82
2018-05-27T11:33:53.084Z,31.68
2018-05-27T11:35:54.547Z,31.80
2018-05-27T11:37:55.996Z,31.64
2018-05-27T11:39:57.482Z,31.76
2018-05-27T11:41:58.978Z,31.73
2018-05-27T11:44:00.480Z,31.72
2018-05-27T11:46:01.959Z,31.91
2018-05-27T11:48:03.404Z,31.93
2018-05-27T11:50:04.857Z,31.95
2018-05-27T11:52:06.362Z,31.96
2018-05-27T11:54:07.824Z,31.99
2018-05-27T11:56:09.314Z,31.93
2018-05-27T11:58:10.769Z,32.14
2018-05-27T12:00:12.262Z,32.22
2018-05-27T12:02:14.115Z,32.36
2018-05-27T12:04:15.895Z,32.57
2018-05-27T12:06:17.422Z,32.57
2018-05-27T12:08:19.099Z,32.69
2018-05-27T12:10:20.816Z,32.55
2018-05-27T12:12:22.303Z,32.36
2018-05-27T12:14:23.805Z,32.25
2018-05-27T12:16:25.331Z,32.13
2018-05-27T12:18:26.780Z,32.00
2018-05-27T12:20:28.259Z,31.92
2018-05-27T12:22:29.754Z,31.64
2018-05-27T12:24:31.256Z,31.54
2018-05-27T12:26:32.711Z,31.49
2018-05-27T12:28:34.200Z,31.45
2018-05-27T12:30:35.719Z,31.43
2018-05-27T12:32:37.163Z,31.57
2018-05-27T12:34:38.626Z,31.76
2018-05-27T12:36:40.107Z,31.96
2018-05-27T12:38:41.563Z,31.99
2018-05-27T12:40:43.013Z,31.96
2018-05-27T12:42:44.589Z,31.87
2018-05-27T12:44:46.002Z,31.92
2018-05-27T12:46:47.498Z,31.88
2018-05-27T12:48:48.979Z,31.84
2018-05-27T12:50:50.480Z,31.96
2018-05-27T12:52:51.934Z,31.92
2018-05-27T12:54:53.372Z,31.80
2018-05-27T12:56:54.859Z,31.68
2018-05-27T12:58:56.298Z,31.53
2018-05-27T13:00:57.781Z,31.48
2018-05-27T13:02:59.210Z,31.54
2018-05-27T13:05:00.656Z,31.49
2018-05-27T13:07:02.106Z,31.33
2018-05-27T13:09:03.549Z,31.12
2018-05-27T13:11:05.004Z,31.12
2018-05-27T13:13:06.481Z,31.11
2018-05-27T13:15:07.939Z,30.89
2018-05-27T13:17:09.381Z,30.86
2018-05-27T13:19:10.822Z,30.69
2018-05-27T13:21:12.274Z,30.53
2018-05-27T13:23:13.713Z,30.50
2018-05-27T13:25:15.189Z,30.40
2018-05-27T13:27:16.633Z,30.49
2018-05-27T13:29:18.081Z,30.38
2018-05-27T13:31:19.525Z,30.40
2018-05-27T13:33:20.972Z,30.33
2018-05-27T13:35:22.410Z,30.47
2018-05-27T13:37:23.861Z,30.50
2018-05-27T13:39:25.330Z,30.53
2018-05-27T13:41:26.888Z,30.53
2018-05-27T13:43:28.393Z,30.69
2018-05-27T13:45:29.839Z,30.75
2018-05-27T13:47:31.327Z,30.67
2018-05-27T13:49:32.784Z,30.68
2018-05-27T13:51:34.253Z,30.57
2018-05-27T13:53:35.699Z,30.46
2018-05-27T13:55:37.140Z,30.52
2018-05-27T13:57:38.584Z,30.46
2018-05-27T13:59:40.029Z,30.33
2018-05-27T14:01:41.479Z,30.34
2018-05-27T14:03:42.918Z,30.29
2018-05-27T14:05:44.362Z,30.29
2018-05-27T14:07:45.804Z,30.23
2018-05-27T14:09:47.254Z,30.27
2018-05-27T14:12:29.704Z,30.29
2018-05-27T14:14:31.159Z,30.26
2018-05-27T14:16:32.601Z,30.29
2018-05-27T14:18:34.044Z,30.24
2018-05-27T14:20:35.483Z,30.24
2018-05-27T14:22:36.923Z,30.33
2018-05-27T14:24:38.371Z,30.40
2018-05-27T14:26:39.800Z,30.49
2018-05-27T14:28:41.252Z,30.47
2018-05-27T14:30:42.693Z,30.54
2018-05-27T14:32:44.133Z,30.57
2018-05-27T14:34:45.574Z,30.50
2018-05-27T14:36:47.017Z,30.53
2018-05-27T14:38:48.464Z,30.57
2018-05-27T14:40:49.901Z,30.49
2018-05-27T14:42:51.347Z,30.50
2018-05-27T14:44:52.815Z,30.43
2018-05-27T14:46:54.230Z,30.52
2018-05-27T14:48:55.698Z,30.45
2018-05-27T14:50:57.138Z,30.43
2018-05-27T14:52:58.621Z,30.26
2018-05-27T14:55:00.080Z,30.12
2018-05-27T14:57:01.516Z,30.08
2018-05-27T14:59:02.963Z,30.08
2018-05-27T15:01:04.400Z,29.97
2018-05-27T15:03:05.855Z,29.87
2018-05-27T15:05:07.291Z,29.84
2018-05-27T15:07:08.746Z,29.84
2018-05-27T15:09:10.180Z,29.79
2018-05-27T15:11:11.631Z,29.65
2018-05-27T15:13:13.119Z,29.50
2018-05-27T15:15:14.634Z,29.33
2018-05-27T15:17:16.107Z,29.34
2018-05-27T15:19:17.555Z,29.11
2018-05-27T15:21:19.000Z,29.08
2018-05-27T15:23:20.442Z,29.07
2018-05-27T15:25:22.003Z,28.91
2018-05-27T15:27:23.470Z,28.91
2018-05-27T15:29:24.991Z,28.93
2018-05-27T15:31:26.454Z,28.93
2018-05-27T15:33:27.922Z,29.03
2018-05-27T15:35:29.409Z,29.01
2018-05-27T15:37:30.850Z,29.06
2018-05-27T15:39:32.279Z,28.95
2018-05-27T15:41:33.714Z,28.84
2018-05-27T15:43:35.165Z,28.81
2018-05-27T15:45:36.605Z,28.53
2018-05-27T15:47:38.040Z,28.38
2018-05-27T15:49:39.584Z,28.23
2018-05-27T15:51:41.028Z,27.99
2018-05-27T15:53:42.533Z,27.91
2018-05-27T15:55:43.910Z,27.92
2018-05-27T15:57:45.358Z,27.80
2018-05-27T15:59:46.843Z,27.67
2018-05-27T16:01:48.232Z,27.64
2018-05-27T16:03:49.673Z,27.35
2018-05-27T16:05:51.117Z,26.99
2018-05-27T16:07:52.554Z,26.95
2018-05-27T16:09:53.992Z,26.86
2018-05-27T16:11:55.452Z,26.74
2018-05-27T16:13:56.901Z,26.68
2018-05-27T16:15:58.340Z,26.55
2018-05-27T16:17:59.768Z,26.42
2018-05-27T16:20:01.215Z,26.32
2018-05-27T16:22:02.669Z,26.22
2018-05-27T16:24:04.105Z,26.18
2018-05-27T16:26:05.551Z,26.12
2018-05-27T16:28:06.985Z,26.09
2018-05-27T16:30:08.424Z,26.17
2018-05-27T16:32:50.857Z,26.06
2018-05-27T16:34:52.297Z,26.08
2018-05-27T16:36:53.735Z,26.04
2018-05-27T16:39:36.172Z,26.12
2018-05-27T16:41:37.607Z,26.05
2018-05-27T16:43:39.046Z,25.99
2018-05-27T16:45:40.540Z,26.01
2018-05-27T16:47:41.924Z,25.94
2018-05-27T16:49:43.371Z,25.98
2018-05-27T16:51:44.809Z,26.09
2018-05-27T16:53:46.246Z,26.08
2018-05-27T16:55:47.682Z,26.15
2018-05-27T16:57:49.121Z,26.17
2018-05-27T16:59:50.557Z,26.12
2018-05-27T17:02:32.983Z,26.11
2018-05-27T17:04:34.424Z,25.97
2018-05-27T17:06:35.864Z,25.87
2018-05-27T17:08:37.301Z,25.82
2018-05-27T17:10:38.736Z,25.98
2018-05-27T17:12:40.184Z,25.86
2018-05-27T17:14:41.618Z,25.79
2018-05-27T17:16:43.110Z,25.83
2018-05-27T17:18:44.534Z,25.83
2018-05-27T17:20:45.968Z,25.86
2018-05-27T17:22:47.406Z,25.69
2018-05-27T17:24:48.867Z,25.68
2018-05-27T17:26:50.284Z,25.74
2018-05-27T17:28:51.721Z,25.65
2018-05-27T17:30:53.161Z,25.72
2018-05-27T17:32:54.592Z,25.80
2018-05-27T17:34:56.034Z,25.82
2018-05-27T17:36:57.476Z,25.83
2018-05-27T17:38:58.930Z,25.90
2018-05-27T17:41:00.381Z,25.77
2018-05-27T17:43:01.826Z,25.87
2018-05-27T17:45:03.269Z,25.91
2018-05-27T17:47:04.771Z,25.94
2018-05-27T17:49:06.152Z,25.98
2018-05-27T17:51:07.597Z,25.91
2018-05-27T17:53:09.041Z,25.80
2018-05-27T17:55:10.531Z,25.87
2018-05-27T17:57:12.007Z,25.80
2018-05-27T17:59:13.442Z,25.83
2018-05-27T18:01:14.877Z,25.71
2018-05-27T18:03:16.315Z,25.69
2018-05-27T18:05:17.753Z,25.71
2018-05-27T18:07:19.203Z,25.69
2018-05-27T18:09:20.639Z,25.74
2018-05-27T18:11:22.356Z,25.69
2018-05-27T18:13:24.065Z,25.61
2018-05-27T18:15:25.765Z,25.54
2018-05-27T18:17:27.591Z,25.50
2018-05-27T18:19:29.229Z,25.52
2018-05-27T18:21:30.892Z,25.42
2018-05-27T18:23:32.611Z,25.30
2018-05-27T18:25:34.123Z,25.22
2018-05-27T18:27:36.171Z,25.20
2018-05-27T18:29:38.091Z,25.17
2018-05-27T18:31:39.844Z,25.06
2018-05-27T18:33:41.539Z,25.12
2018-05-27T18:35:43.391Z,25.02
2018-05-27T18:37:45.090Z,25.01
2018-05-27T18:39:46.872Z,24.88
2018-05-27T18:42:29.263Z,24.83
2018-05-27T18:44:30.709Z,24.82
2018-05-27T18:46:32.147Z,24.82
2018-05-27T18:48:33.584Z,24.80
2018-05-27T18:50:35.014Z,24.75
2018-05-27T18:53:16.449Z,24.69
2018-05-27T18:55:17.877Z,24.67
2018-05-27T18:57:19.333Z,24.68
2018-05-27T18:59:20.771Z,24.71
2018-05-27T19:02:03.275Z,24.54
2018-05-27T19:04:04.700Z,24.50
2018-05-27T19:06:06.270Z,24.49
2018-05-27T19:08:07.789Z,24.50
2018-05-27T19:10:09.257Z,24.52
2018-05-27T19:12:51.723Z,24.45
2018-05-27T19:14:53.206Z,24.34
2018-05-27T19:16:54.752Z,24.31
2018-05-27T19:18:57.099Z,24.19
2018-05-27T19:21:39.616Z,24.10
2018-05-27T19:23:41.578Z,23.98
2018-05-27T19:25:43.109Z,23.98
2018-05-27T19:27:45.019Z,24.04
2018-05-27T19:29:47.147Z,24.04
2018-05-27T19:31:49.276Z,23.89
2018-05-27T19:33:50.853Z,23.95
2018-05-27T19:35:52.490Z,23.86
2018-05-27T19:37:55.774Z,23.86
2018-05-27T19:39:57.298Z,23.89
2018-05-27T19:41:58.751Z,23.80
2018-05-27T19:44:00.219Z,23.79
2018-05-27T19:46:01.695Z,23.70
2018-05-27T19:48:03.139Z,23.72
2018-05-27T19:50:04.562Z,23.68
2018-05-27T19:52:05.996Z,23.68
2018-05-27T19:54:07.429Z,23.67
2018-05-27T19:56:08.857Z,23.58
2018-05-27T19:58:10.308Z,23.57
2018-05-27T20:00:11.765Z,23.57
2018-05-27T20:02:13.204Z,23.57
2018-05-27T20:04:14.645Z,23.46
2018-05-27T20:06:16.173Z,23.46
2018-05-27T20:08:17.639Z,23.50
2018-05-27T20:10:19.051Z,23.40
2018-05-27T20:12:20.507Z,23.38
2018-05-27T20:14:21.947Z,23.38
2018-05-27T20:16:23.382Z,23.27
2018-05-27T20:18:24.898Z,23.22
2018-05-27T20:20:26.339Z,23.19
2018-05-27T20:22:27.765Z,23.14
2018-05-27T20:24:29.258Z,23.12
2018-05-27T20:26:30.858Z,23.02
2018-05-27T20:28:32.394Z,22.97
2018-05-27T20:30:33.914Z,23.05
2018-05-27T20:32:35.514Z,23.02
2018-05-27T20:34:37.000Z,23.08
2018-05-27T20:36:38.529Z,22.99
2018-05-27T20:38:39.995Z,22.99
2018-05-27T20:40:42.107Z,22.99
2018-05-27T20:42:43.812Z,22.87
2018-05-27T20:44:45.634Z,22.82
2018-05-27T20:46:47.170Z,22.82
2018-05-27T20:48:48.707Z,22.83
2018-05-27T20:50:50.199Z,22.82
2018-05-27T20:52:51.656Z,22.80
2018-05-27T20:54:53.153Z,22.75
2018-05-27T20:56:54.685Z,22.69
2018-05-27T20:58:56.107Z,22.62
2018-05-27T21:00:57.603Z,22.65
2018-05-27T21:02:59.114Z,22.64
2018-05-27T21:05:00.891Z,22.57
2018-05-27T21:07:02.375Z,22.59
2018-05-27T21:09:03.921Z,22.53
2018-05-27T21:11:05.418Z,22.54
2018-05-27T21:13:06.980Z,22.50
2018-05-27T21:15:08.497Z,22.50
2018-05-27T21:17:10.000Z,22.37
2018-05-27T21:19:11.461Z,22.43
2018-05-27T21:21:12.943Z,22.39
2018-05-27T21:23:14.499Z,22.35
2018-05-27T21:25:15.982Z,22.46
2018-05-27T21:27:17.948Z,22.41
2018-05-27T21:29:19.454Z,22.27
2018-05-27T21:31:20.994Z,22.38
2018-05-27T21:33:22.546Z,22.32
2018-05-27T21:35:24.043Z,22.39
2018-05-27T21:37:25.596Z,22.28
2018-05-27T21:39:27.149Z,22.38
2018-05-27T21:41:28.697Z,22.22
2018-05-27T21:43:30.218Z,22.19
2018-05-27T21:45:31.702Z,22.23
2018-05-27T21:47:33.204Z,22.29
2018-05-27T21:49:34.708Z,22.14
2018-05-27T21:51:36.356Z,22.12
2018-05-27T21:53:38.386Z,22.09
2018-05-27T21:55:39.838Z,22.04
2018-05-27T21:57:41.351Z,22.04
2018-05-27T21:59:42.825Z,22.02
2018-05-27T22:01:44.320Z,21.97
2018-05-27T22:03:46.221Z,21.95
2018-05-27T22:05:47.780Z,21.91
2018-05-27T22:07:49.260Z,21.90
2018-05-27T22:09:50.920Z,21.82
2018-05-27T22:11:52.559Z,21.90
2018-05-27T22:13:54.220Z,21.83
2018-05-27T22:15:57.197Z,21.87
2018-05-27T22:17:59.357Z,21.83
2018-05-27T22:20:00.953Z,21.72
2018-05-27T22:22:02.459Z,21.76
2018-05-27T22:24:04.090Z,21.75
2018-05-27T22:26:05.688Z,21.79
2018-05-27T22:28:07.162Z,21.72
2018-05-27T22:30:08.631Z,21.69
2018-05-27T22:32:10.196Z,21.71
2018-05-27T22:34:11.709Z,21.69
2018-05-27T22:36:13.222Z,21.71
2018-05-27T22:38:14.715Z,21.67
2018-05-27T22:40:16.229Z,21.66
2018-05-27T22:42:17.731Z,21.63
2018-05-27T22:44:19.218Z,21.66
2018-05-27T22:46:20.694Z,21.56
2018-05-27T22:48:22.213Z,21.60
2018-05-27T22:50:23.681Z,21.56
2018-05-27T22:52:25.272Z,21.57
2018-05-27T22:54:26.778Z,21.59
2018-05-27T22:56:28.331Z,21.53
2018-05-27T22:58:29.859Z,21.53
2018-05-27T23:00:31.363Z,21.51
2018-05-27T23:02:32.884Z,21.42
2018-05-27T23:04:34.516Z,21.48
2018-05-27T23:06:36.883Z,21.46
2018-05-27T23:08:38.649Z,21.45
2018-05-27T23:10:40.116Z,21.38
2018-05-27T23:12:41.585Z,21.38
2018-05-27T23:14:43.292Z,21.39
2018-05-27T23:16:44.806Z,21.35
2018-05-27T23:18:46.346Z,21.39
2018-05-27T23:20:47.833Z,21.21
2018-05-27T23:22:49.324Z,21.23
2018-05-27T23:24:50.832Z,21.23
2018-05-27T23:26:52.444Z,21.23
2018-05-27T23:28:53.923Z,21.27
2018-05-27T23:30:55.450Z,21.23
2018-05-27T23:32:56.910Z,21.24
2018-05-27T23:34:58.399Z,21.20
2018-05-27T23:36:59.894Z,21.24
2018-05-27T23:39:01.328Z,21.23
2018-05-27T23:41:03.418Z,21.27
2018-05-27T23:43:45.813Z,21.24
2018-05-27T23:45:47.340Z,21.24
2018-05-27T23:47:48.848Z,21.13
2018-05-27T23:49:50.271Z,21.13
2018-05-27T23:51:51.694Z,21.09
2018-05-27T23:53:53.134Z,21.11
2018-05-27T23:55:54.613Z,21.01
2018-05-27T23:57:56.168Z,21.05
2018-05-27T23:59:57.609Z,21.04
